Fairfax, Vermont
Current Conditions -  °F | °C
As of 5:54 AM on Wednesday 22 Oct 2014 (Local Time) from KBTV Reporting Station
Overcast Overcast  
Wind Chill: 41°   Ceiling: 400
Heat Index: 46°   Visibility: 9mi
Dew Point: 43°   Wind: 9mph
Humidity: 89%   Direction: 350°N
Pressure: 30.13"   Gusts: NA
Location:  44.67°N, 73.01°W
Report Text: KBTV 220954Z 35008KT 9SM OVC004 08/06 A3013 RMK AO2 SLP205 T00780061 $
Loading
Personal Weather Stations






























Interactive Weather Map New forecast layout! Learn more

10-Day Weather Forecast

Advertisements
Track Severe Weather on mobile